Time;durP1;ratioP1;P1;durP2;ratioP2;P2;SDS_P1;SDS_P2;PMS_P1;PMS_P2;Temp;Humidity;BMP_temperature;BMP_pressure;BME280_temperature;BME280_humidity;BME280_pressure;Samples;Min_cycle;Max_cycle;Signal;HPM_P1;HPM_P2
2021/05/26 00:00:54;;;;;;;8.28;3.60;;;;;;;11.97;78.34;100051.92;1646214;86;21042;-84
2021/05/26 00:03:20;;;;;;;7.60;3.40;;;;;;;12.12;78.71;100055.53;1648369;85;21121;-86
2021/05/26 00:05:50;;;;;;;8.50;3.50;;;;;;;12.18;78.56;100061.48;1606380;85;21109;-80
2021/05/26 00:08:39;;;;;;;8.58;3.40;;;;;;;12.23;78.25;100055.68;1646095;85;21102;-82
2021/05/26 00:11:13;;;;;;;7.25;3.47;;;;;;;12.24;78.29;100065.77;1648103;86;21089;-84
2021/05/26 00:13:43;;;;;;;8.23;3.05;;;;;;;12.27;78.00;100054.83;1648110;85;21603;-84
2021/05/26 00:16:12;;;;;;;7.28;3.22;;;;;;;12.16;77.95;100054.19;1648034;85;21014;-87
2021/05/26 00:18:40;;;;;;;10.18;3.30;;;;;;;12.15;77.99;100049.91;1648615;86;21069;-82
2021/05/26 00:21:07;;;;;;;7.42;3.65;;;;;;;12.07;77.79;100057.84;1631132;85;21137;-85
2021/05/26 00:23:33;;;;;;;8.40;3.20;;;;;;;12.00;78.14;100060.34;1646694;85;21132;-85
2021/05/26 00:26:00;;;;;;;9.23;3.37;;;;;;;11.96;78.12;100064.34;1648562;85;21136;-84
2021/05/26 00:28:25;;;;;;;8.90;3.20;;;;;;;11.88;78.55;100051.56;1648229;86;21089;-85
2021/05/26 00:30:52;;;;;;;6.17;3.25;;;;;;;11.83;78.56;100062.14;1648761;85;20992;-85
2021/05/26 00:33:20;;;;;;;9.35;3.35;;;;;;;11.84;78.62;100055.05;1628878;86;21082;-84
2021/05/26 00:35:48;;;;;;;6.15;2.77;;;;;;;11.75;78.12;100046.28;1649627;85;21187;-84
2021/05/26 00:38:15;;;;;;;6.85;3.50;;;;;;;11.73;77.88;100048.28;1648791;85;21015;-82
2021/05/26 00:40:41;;;;;;;7.45;3.35;;;;;;;11.59;78.71;100046.28;1650136;85;21078;-85
2021/05/26 00:43:11;;;;;;;5.10;3.00;;;;;;;11.57;78.93;100054.37;1658049;84;21055;-83
2021/05/26 00:45:39;;;;;;;9.53;3.40;;;;;;;11.50;79.27;100058.69;1654956;86;21693;-82
2021/05/26 00:48:09;;;;;;;9.75;3.17;;;;;;;11.48;79.14;100070.75;1629056;86;21117;-81
2021/05/26 00:50:36;;;;;;;7.67;3.00;;;;;;;11.42;79.30;100075.38;1658131;84;21143;-80
2021/05/26 00:53:09;;;;;;;5.70;3.02;;;;;;;11.44;79.24;100077.34;1656186;85;21067;-83
2021/05/26 00:55:44;;;;;;;7.60;2.85;;;;;;;11.42;79.20;100083.31;1652051;86;21121;-84
2021/05/26 00:58:11;;;;;;;7.50;3.15;;;;;;;11.28;79.28;100086.59;1656519;86;22305;-83
2021/05/26 01:00:41;;;;;;;6.40;2.80;;;;;;;11.35;79.12;100086.77;1652512;85;21763;-83
2021/05/26 01:03:08;;;;;;;8.75;3.22;;;;;;;11.32;79.46;100093.19;1654130;85;21645;-84
2021/05/26 01:05:36;;;;;;;8.23;3.20;;;;;;;11.35;79.27;100096.83;1655555;85;21320;-81
2021/05/26 01:08:01;;;;;;;10.43;2.90;;;;;;;11.24;79.52;100092.68;1657848;84;21101;-80
2021/05/26 01:10:29;;;;;;;8.70;2.98;;;;;;;11.24;79.06;100099.80;1655809;85;21067;-83
2021/05/26 01:12:56;;;;;;;;;;;;;;;11.18;78.55;100104.41;1657874;85;21216;-83
2021/05/26 01:15:23;;;;;;;6.08;2.72;;;;;;;11.05;79.12;100088.51;1633536;86;20246;-84
2021/05/26 01:17:50;;;;;;;11.03;2.95;;;;;;;10.95;79.01;100095.73;1656227;85;21106;-84
2021/05/26 01:20:23;;;;;;;6.17;2.85;;;;;;;11.05;78.26;100100.41;1657200;85;28208;-85
2021/05/26 01:22:51;;;;;;;5.67;2.75;;;;;;;10.94;79.08;100104.67;1655716;86;21050;-83
2021/05/26 01:25:17;;;;;;;6.80;2.85;;;;;;;11.00;78.57;100093.93;1639899;86;21731;-84
2021/05/26 01:27:47;;;;;;;4.72;2.65;;;;;;;10.85;79.31;100105.63;1656989;85;26921;-87
2021/05/26 01:30:15;;;;;;;6.87;2.70;;;;;;;10.92;78.84;100110.58;1658485;85;20953;-86
2021/05/26 01:32:43;;;;;;;;;;;;;;;11.01;78.80;100111.45;1665672;84;21079;-83
2021/05/26 01:35:13;;;;;;;6.40;2.90;;;;;;;10.90;78.79;100111.25;1660617;84;20230;-84
2021/05/26 01:37:46;;;;;;;5.62;2.50;;;;;;;10.98;78.74;100115.23;1656072;85;21104;-86
2021/05/26 01:40:16;;;;;;;6.08;2.60;;;;;;;10.86;79.10;100121.78;1656376;84;21119;-86
2021/05/26 01:42:45;;;;;;;5.70;2.72;;;;;;;10.87;78.98;100123.45;1663982;84;21651;-84
2021/05/26 01:45:12;;;;;;;5.20;2.67;;;;;;;10.70;79.69;100129.15;1660979;84;21113;-82
2021/05/26 01:47:38;;;;;;;5.40;3.00;;;;;;;10.65;79.90;100133.58;1670664;85;21138;-84
2021/05/26 01:50:19;;;;;;;7.20;2.80;;;;;;;10.65;80.05;100132.26;1646566;85;20998;-83
2021/05/26 01:52:35;;;;;;;6.30;2.87;;;;;;;10.70;79.61;100137.89;1649627;85;21535;-84
2021/05/26 01:55:04;;;;;;;5.78;2.85;;;;;;;10.62;79.53;100143.64;1671739;85;25232;-83
2021/05/26 01:57:32;;;;;;;5.40;2.70;;;;;;;10.55;79.77;100151.34;1670032;84;21753;-84
2021/05/26 02:00:02;;;;;;;5.03;2.58;;;;;;;10.53;80.21;100145.39;1671923;85;21134;-84
2021/05/26 02:02:29;;;;;;;6.00;2.60;;;;;;;10.53;79.91;100155.95;1670672;83;21612;-83
2021/05/26 02:04:54;;;;;;;8.90;2.98;;;;;;;10.60;79.90;100148.58;1672521;84;21074;-84
2021/05/26 02:07:22;;;;;;;4.83;2.50;;;;;;;10.64;79.68;100148.27;1670913;84;22213;-84
2021/05/26 02:09:48;;;;;;;6.60;2.77;;;;;;;10.47;79.98;100156.11;1671866;84;21088;-84
2021/05/26 02:12:22;;;;;;;5.92;2.77;;;;;;;10.60;79.50;100151.72;1654218;84;21717;-84
2021/05/26 02:14:46;;;;;;;6.45;2.85;;;;;;;10.62;79.51;100154.20;1671645;85;21006;-82
2021/05/26 02:17:13;;;;;;;8.50;3.12;;;;;;;10.66;79.34;100154.20;1672462;84;27141;-85
2021/05/26 02:19:39;;;;;;;;;;;;;;;10.73;79.03;100161.34;1675260;84;21086;-84
2021/05/26 02:22:09;;;;;;;6.55;2.67;;;;;;;10.78;78.86;100165.69;1671338;84;20190;-83
2021/05/26 02:24:35;;;;;;;5.85;2.90;;;;;;;10.87;78.54;100168.36;1667336;84;21141;-84
2021/05/26 02:27:02;;;;;;;6.50;2.95;;;;;;;10.91;78.35;100171.03;1670620;84;21049;-80
2021/05/26 02:29:30;;;;;;;6.28;2.55;;;;;;;11.02;78.01;100172.57;1670908;84;20987;-80
2021/05/26 02:31:56;;;;;;;;;;;;;;;10.90;78.09;100174.65;1674247;85;21558;-83
2021/05/26 02:34:24;;;;;;;7.00;2.60;;;;;;;10.86;78.44;100182.55;1669113;85;20273;-83
2021/05/26 02:36:51;;;;;;;6.37;2.85;;;;;;;10.69;78.58;100187.76;1670162;84;21082;-83
2021/05/26 02:39:18;;;;;;;;;;;;;;;10.66;78.63;100184.11;1672692;84;21059;-84
2021/05/26 02:41:44;;;;;;;4.35;2.42;;;;;;;10.69;78.57;100182.47;1670964;84;20217;-84
2021/05/26 02:44:11;;;;;;;6.90;2.75;;;;;;;10.78;78.26;100182.86;1652164;84;25277;-84
2021/05/26 02:46:36;;;;;;;8.40;2.72;;;;;;;10.81;77.81;100185.66;1635786;85;22294;-85
2021/05/26 02:49:04;;;;;;;5.12;2.60;;;;;;;10.84;77.92;100184.02;1650686;85;20920;-85
2021/05/26 02:51:34;;;;;;;6.33;2.67;;;;;;;10.96;77.39;100183.27;1653887;85;21086;-83
2021/05/26 02:54:03;;;;;;;9.00;3.35;;;;;;;10.90;77.25;100180.75;1652468;86;21016;-86
2021/05/26 02:56:29;;;;;;;5.62;2.60;;;;;;;11.03;77.14;100189.59;1654677;85;21337;-84
2021/05/26 02:58:55;;;;;;;6.20;2.80;;;;;;;10.89;77.05;100197.61;1651888;86;20919;-83
2021/05/26 03:01:23;;;;;;;5.47;2.67;;;;;;;10.92;77.04;100197.77;1651273;85;21076;-86
2021/05/26 03:03:49;;;;;;;7.28;2.98;;;;;;;10.97;76.66;100192.86;1652132;86;21733;-86
2021/05/26 03:06:17;;;;;;;5.05;2.80;;;;;;;10.96;76.73;100188.55;1651145;85;21006;-84
2021/05/26 03:08:46;;;;;;;;;;;;;;;10.78;76.99;100186.82;1652986;85;21065;-85
2021/05/26 03:11:11;;;;;;;6.12;2.75;;;;;;;10.83;77.01;100186.82;1651838;85;20230;-81
2021/05/26 03:13:37;;;;;;;6.40;2.60;;;;;;;10.86;76.92;100190.00;1651134;85;20887;-81
2021/05/26 03:16:04;;;;;;;4.83;2.40;;;;;;;10.77;76.87;100198.36;1633181;86;22613;-84
2021/05/26 03:18:33;;;;;;;5.67;2.77;;;;;;;10.64;77.29;100199.76;1632629;85;21617;-80
2021/05/26 03:20:59;;;;;;;6.00;2.55;;;;;;;10.71;77.39;100196.84;1648697;85;21742;-84
2021/05/26 03:23:25;;;;;;;7.03;2.70;;;;;;;10.84;77.05;100201.70;1628132;86;21727;-83
2021/05/26 03:25:52;;;;;;;6.10;2.55;;;;;;;10.73;77.10;100204.92;1650495;85;21003;-83
2021/05/26 03:28:24;;;;;;;8.25;2.30;;;;;;;10.66;77.07;100195.14;1637299;85;25191;-83
2021/05/26 03:30:50;;;;;;;6.45;2.40;;;;;;;10.78;76.89;100202.67;1650525;85;21039;-82
2021/05/26 03:33:17;;;;;;;5.12;2.30;;;;;;;10.73;77.07;100212.85;1649632;85;25665;-84
2021/05/26 03:35:45;;;;;;;4.95;2.60;;;;;;;10.76;76.93;100205.94;1647876;85;21077;-83
2021/05/26 03:38:12;;;;;;;8.15;2.22;;;;;;;10.83;76.59;100218.52;1654344;85;21042;-80
2021/05/26 03:40:39;;;;;;;7.90;2.60;;;;;;;10.79;76.74;100200.84;1647420;86;21843;-83
2021/05/26 03:43:07;;;;;;;;;;;;;;;10.78;76.31;100206.63;1653053;85;21055;-82
2021/05/26 03:45:33;;;;;;;4.45;2.27;;;;;;;10.73;76.45;100203.61;1658360;85;20276;-87
2021/05/26 03:48:01;;;;;;;4.33;2.20;;;;;;;10.95;76.16;100198.77;1636844;86;20916;-83
2021/05/26 03:50:32;;;;;;;8.13;2.40;;;;;;;10.95;76.13;100201.42;1638923;86;21041;-83
2021/05/26 03:52:58;;;;;;;4.53;2.20;;;;;;;10.97;75.70;100206.08;1656663;85;21206;-83
2021/05/26 03:55:26;;;;;;;5.65;2.10;;;;;;;11.01;75.67;100205.26;1658560;85;20943;-87
2021/05/26 03:57:53;;;;;;;4.35;2.35;;;;;;;11.11;75.71;100198.87;1656007;85;21570;-87
2021/05/26 04:00:20;;;;;;;;;;;;;;;11.23;75.22;100202.07;1636339;85;21213;-87
2021/05/26 04:02:48;;;;;;;4.28;2.12;;;;;;;11.35;75.09;100206.55;1638091;85;21788;-88
2021/05/26 04:05:15;;;;;;;3.92;2.10;;;;;;;11.45;74.60;100206.41;1657933;85;21056;-84
2021/05/26 04:07:44;;;;;;;6.75;2.45;;;;;;;11.46;74.28;100212.86;1655595;85;21162;-84
2021/05/26 04:10:12;;;;;;;5.53;2.08;;;;;;;11.42;74.00;100212.87;1656001;85;21223;-87
2021/05/26 04:12:40;;;;;;;4.08;2.00;;;;;;;11.52;74.08;100215.38;1650536;85;21133;-86
2021/05/26 04:15:06;;;;;;;;;;;;;;;11.42;74.05;100214.67;1660681;85;21105;-85
2021/05/26 04:17:32;;;;;;;4.42;1.98;;;;;;;11.42;74.06;100215.52;1634994;86;20927;-84
2021/05/26 04:20:04;;;;;;;4.90;1.90;;;;;;;11.30;74.34;100222.08;1658560;85;21553;-84
2021/05/26 04:22:31;;;;;;;3.95;2.05;;;;;;;11.18;74.84;100222.84;1656914;85;21322;-81
2021/05/26 04:25:00;;;;;;;;;;;;;;;11.32;74.46;100228.84;1638928;86;21035;-84
2021/05/26 04:27:26;;;;;;;4.25;2.00;;;;;;;11.49;74.24;100228.41;1658593;85;20194;-84
2021/05/26 04:29:56;;;;;;;5.30;2.08;;;;;;;11.57;73.87;100235.55;1657898;86;21073;-84
2021/05/26 04:32:25;;;;;;;3.77;1.87;;;;;;;11.71;73.63;100235.92;1658191;86;21073;-84
2021/05/26 04:34:51;;;;;;;6.20;1.87;;;;;;;11.84;73.27;100231.83;1637783;86;21028;-84
2021/05/26 04:37:20;;;;;;;3.67;1.55;;;;;;;11.68;72.91;100241.03;1657472;85;21003;-85
2021/05/26 04:39:48;;;;;;;4.12;1.80;;;;;;;11.74;73.09;100247.00;1658032;85;21058;-80
2021/05/26 04:42:15;;;;;;;3.58;1.85;;;;;;;11.62;73.46;100248.29;1655666;84;21159;-83
2021/05/26 04:44:41;;;;;;;2.92;1.70;;;;;;;11.62;73.53;100241.67;1656732;84;22207;-85
2021/05/26 04:47:06;;;;;;;3.35;1.80;;;;;;;11.61;72.61;100250.63;1656009;85;20999;-87
2021/05/26 04:49:34;;;;;;;4.45;1.70;;;;;;;11.46;73.37;100243.27;1662003;84;20975;-82
2021/05/26 04:51:59;;;;;;;;;;;;;;;11.63;73.14;100240.70;1647715;85;21019;-84
2021/05/26 04:54:26;;;;;;;2.62;1.60;;;;;;;11.49;73.71;100180.81;1655215;84;21041;-86
2021/05/26 04:56:52;;;;;;;3.12;1.80;;;;;;;11.84;72.81;100236.30;1651849;86;21140;-87
2021/05/26 04:59:19;;;;;;;2.65;1.60;;;;;;;11.84;71.94;100238.44;1652385;85;20940;-89
2021/05/26 05:01:45;;;;;;;;;;;;;;;11.96;72.06;100244.77;1659046;86;21047;-88
2021/05/26 05:04:11;;;;;;;5.03;1.52;;;;;;;12.10;71.57;100241.47;1655344;84;20199;-88
2021/05/26 05:06:38;;;;;;;4.03;1.80;;;;;;;11.91;71.12;100241.77;1653910;84;21112;-87
2021/05/26 05:09:06;;;;;;;;;;;;;;;11.80;71.11;100243.71;1658655;84;21118;-87
2021/05/26 05:11:32;;;;;;;3.47;1.70;;;;;;;11.98;70.79;100242.81;1655723;84;20154;-85
2021/05/26 05:14:01;;;;;;;3.30;1.60;;;;;;;12.05;70.36;100242.47;1657259;84;20926;-84
2021/05/26 05:16:28;;;;;;;3.52;1.60;;;;;;;12.16;71.30;100246.62;1654184;85;21338;-86
2021/05/26 05:18:55;;;;;;;2.70;1.50;;;;;;;12.25;70.86;100248.28;1655965;85;21598;-86
2021/05/26 05:21:21;;;;;;;3.00;1.70;;;;;;;12.37;70.19;100240.85;1654633;85;21694;-86
2021/05/26 05:23:47;;;;;;;2.77;1.50;;;;;;;12.46;70.10;100239.86;1653678;85;21094;-86
2021/05/26 05:26:13;;;;;;;2.70;1.70;;;;;;;12.57;69.75;100240.84;1654416;85;21104;-84
2021/05/26 05:28:39;;;;;;;6.78;1.77;;;;;;;12.68;69.50;100245.47;1654938;85;21029;-86
2021/05/26 05:31:04;;;;;;;3.35;1.67;;;;;;;12.85;68.63;100243.59;1655311;84;22176;-83
2021/05/26 05:33:30;;;;;;;3.98;1.60;;;;;;;12.72;68.44;100249.42;1629849;85;20908;-85
2021/05/26 05:35:57;;;;;;;3.00;1.70;;;;;;;12.70;69.27;100244.80;1658785;84;20999;-86
2021/05/26 05:38:22;;;;;;;3.52;1.80;;;;;;;12.68;69.41;100243.64;1656839;85;21687;-87
2021/05/26 05:40:51;;;;;;;2.77;1.55;;;;;;;12.65;67.83;100247.13;1657732;84;21084;-84
2021/05/26 05:43:17;;;;;;;2.62;1.47;;;;;;;12.86;68.42;100251.38;1658252;84;21070;-84
2021/05/26 05:45:44;;;;;;;2.98;1.70;;;;;;;12.93;67.50;100247.06;1630137;86;20950;-83
2021/05/26 05:48:13;;;;;;;;;;;;;;;12.81;67.67;100242.30;1650443;85;21171;-86
2021/05/26 05:50:40;;;;;;;3.00;1.40;;;;;;;12.92;67.17;100249.89;1649396;85;20250;-88
2021/05/26 05:53:06;;;;;;;5.92;1.60;;;;;;;12.99;66.63;100250.87;1644142;86;21135;-81
2021/05/26 05:55:36;;;;;;;2.45;1.30;;;;;;;12.89;66.84;100247.06;1649644;85;21083;-84
2021/05/26 05:58:03;;;;;;;2.77;1.40;;;;;;;13.09;66.08;100241.39;1644391;85;21652;-81
2021/05/26 06:00:30;;;;;;;3.08;1.42;;;;;;;13.03;65.80;100252.17;1634266;86;21054;-83
2021/05/26 06:03:04;;;;;;;2.65;1.47;;;;;;;13.19;65.32;100241.19;1647193;85;21123;-85
2021/05/26 06:05:32;;;;;;;2.55;1.30;;;;;;;13.24;65.78;100241.02;1648504;86;21639;-82
2021/05/26 06:07:58;;;;;;;4.33;1.50;;;;;;;13.29;64.98;100250.60;1657050;86;21844;-85
2021/05/26 06:10:23;;;;;;;3.58;1.37;;;;;;;13.37;64.05;100258.24;1647824;85;21713;-83
2021/05/26 06:12:53;;;;;;;4.70;1.32;;;;;;;13.38;63.85;100265.22;1630374;86;21182;-84
2021/05/26 06:15:17;;;;;;;2.85;1.40;;;;;;;13.23;64.55;100257.91;1645684;85;21579;-86
2021/05/26 06:17:42;;;;;;;4.58;1.10;;;;;;;13.39;64.08;100256.23;1646070;86;21280;-82
2021/05/26 06:20:11;;;;;;;2.85;1.35;;;;;;;13.33;63.19;100251.59;1647729;86;22022;-84
2021/05/26 06:22:38;;;;;;;2.75;1.22;;;;;;;13.55;62.94;100250.87;1645868;85;21100;-84
2021/05/26 06:25:06;;;;;;;3.27;1.17;;;;;;;13.66;62.72;100261.60;1648799;85;21014;-84
2021/05/26 06:27:33;;;;;;;2.10;0.90;;;;;;;13.70;61.53;100260.74;1648577;85;21143;-82
2021/05/26 06:30:02;;;;;;;2.22;1.00;;;;;;;13.86;61.63;100256.69;1656004;84;21046;-83
2021/05/26 06:32:28;;;;;;;1.80;0.95;;;;;;;13.77;60.97;100261.20;1632731;86;21687;-85
2021/05/26 06:34:53;;;;;;;5.30;1.10;;;;;;;13.56;60.69;100262.30;1649506;85;20980;-85
2021/05/26 06:37:23;;;;;;;5.67;1.30;;;;;;;13.63;60.97;100253.48;1647178;85;20947;-83
2021/05/26 06:39:48;;;;;;;3.92;1.05;;;;;;;13.85;60.52;100255.02;1648980;85;21014;-82
2021/05/26 06:42:14;;;;;;;2.67;1.00;;;;;;;13.95;60.65;100250.80;1646681;85;21662;-85
2021/05/26 06:44:40;;;;;;;3.40;1.10;;;;;;;14.03;59.74;100252.58;1659386;85;21697;-86
2021/05/26 06:47:08;;;;;;;3.00;1.00;;;;;;;13.90;59.83;100257.16;1670890;84;20975;-86
2021/05/26 06:49:38;;;;;;;2.10;0.75;;;;;;;13.67;60.78;100270.38;1671009;84;21747;-85
2021/05/26 06:52:05;;;;;;;3.60;1.35;;;;;;;13.78;59.76;100280.59;1671587;84;21131;-86
2021/05/26 06:54:32;;;;;;;2.33;0.98;;;;;;;13.82;59.31;100265.98;1673299;84;21234;-83
2021/05/26 06:57:01;;;;;;;3.20;1.15;;;;;;;13.97;59.07;100260.26;1671593;84;21148;-83
2021/05/26 06:59:28;;;;;;;1.60;0.90;;;;;;;14.16;58.69;100254.16;1669907;84;21789;-86
2021/05/26 07:01:54;;;;;;;3.90;1.10;;;;;;;14.18;58.54;100259.64;1641551;85;21600;-87
2021/05/26 07:04:27;;;;;;;2.83;0.93;;;;;;;14.13;58.83;100263.81;1669010;84;20974;-84
2021/05/26 07:06:57;;;;;;;1.55;0.90;;;;;;;14.30;58.91;100263.20;1669446;85;21037;-89
2021/05/26 07:09:23;;;;;;;1.17;0.80;;;;;;;14.50;58.53;100267.52;1670260;84;22098;-88
2021/05/26 07:11:48;;;;;;;5.67;1.00;;;;;;;14.81;57.97;100266.62;1670597;84;20939;-84
2021/05/26 07:14:15;;;;;;;2.42;1.00;;;;;;;14.74;57.15;100273.66;1642783;85;20934;-83
2021/05/26 07:16:43;;;;;;;4.58;1.10;;;;;;;14.89;57.59;100267.34;1669181;84;21168;-85
2021/05/26 07:19:13;;;;;;;4.85;1.60;;;;;;;14.90;57.28;100273.51;1646897;85;21065;-87
2021/05/26 07:21:41;;;;;;;1.85;0.80;;;;;;;14.94;57.11;100268.13;1664448;84;21215;-87
2021/05/26 07:24:08;;;;;;;1.95;0.90;;;;;;;14.52;55.96;100276.13;1668937;84;21048;-85
2021/05/26 07:26:35;;;;;;;4.00;1.10;;;;;;;14.90;56.11;100278.83;1667362;84;21638;-87
2021/05/26 07:29:03;;;;;;;2.72;1.00;;;;;;;14.74;55.79;100274.98;1668933;84;21132;-87
2021/05/26 07:31:29;;;;;;;3.42;0.88;;;;;;;14.52;55.94;100281.45;1642480;84;21116;-87
2021/05/26 07:33:56;;;;;;;1.95;0.98;;;;;;;14.83;55.90;100277.37;1670626;84;21072;-91
2021/05/26 07:36:22;;;;;;;2.33;1.10;;;;;;;14.85;55.28;100282.52;1671362;84;21089;-94
2021/05/26 07:38:51;;;;;;;3.40;1.10;;;;;;;14.95;54.85;100272.45;1639764;85;21128;-90
2021/05/26 07:41:16;;;;;;;4.95;1.20;;;;;;;14.98;54.87;100261.45;1669672;84;21037;-82
2021/05/26 07:43:42;;;;;;;2.70;1.15;;;;;;;15.00;54.51;100267.41;1674827;84;21043;-86
2021/05/26 07:46:11;;;;;;;2.52;1.10;;;;;;;15.05;54.97;100271.66;1650427;85;20987;-86
2021/05/26 07:48:39;;;;;;;4.37;1.37;;;;;;;15.17;55.26;100260.59;1647929;86;21141;-84
2021/05/26 07:51:06;;;;;;;2.37;1.12;;;;;;;15.18;55.43;100262.22;1649242;85;21644;-84
2021/05/26 07:53:34;;;;;;;3.62;1.60;;;;;;;15.62;54.89;100258.70;1648485;85;21157;-86
2021/05/26 07:56:02;;;;;;;3.00;1.15;;;;;;;15.53;55.81;100263.81;1647709;85;21109;-85
2021/05/26 07:58:32;;;;;;;6.00;1.50;;;;;;;15.63;55.17;100265.70;1648226;85;21828;-83
2021/05/26 08:00:58;;;;;;;4.00;1.20;;;;;;;15.68;54.06;100261.14;1653497;84;21050;-84
2021/05/26 08:03:24;;;;;;;2.83;1.22;;;;;;;15.42;54.29;100261.94;1650266;85;20955;-83
2021/05/26 08:05:50;;;;;;;3.40;1.10;;;;;;;15.54;53.93;100267.63;1648780;86;21049;-87
2021/05/26 08:08:17;;;;;;;7.33;1.55;;;;;;;15.61;53.91;100263.70;1646093;86;21086;-84
2021/05/26 08:10:44;;;;;;;3.95;1.30;;;;;;;15.98;54.17;100257.91;1645126;86;21083;-82
2021/05/26 08:13:11;;;;;;;4.45;1.70;;;;;;;16.19;53.47;100257.59;1648567;85;20942;-89
2021/05/26 08:15:37;;;;;;;3.60;1.40;;;;;;;16.10;53.03;100253.73;1647016;85;21102;-87
2021/05/26 08:18:04;;;;;;;4.35;1.20;;;;;;;16.38;52.91;100250.30;1648342;86;21020;-87
2021/05/26 08:20:31;;;;;;;4.50;1.57;;;;;;;15.94;52.01;100220.67;1650861;86;21140;-87
2021/05/26 08:22:59;;;;;;;6.75;1.70;;;;;;;16.34;51.91;100257.02;1652533;83;21200;-86
2021/05/26 08:25:30;;;;;;;5.42;1.20;;;;;;;16.10;52.25;100252.91;1651177;85;21252;-87
2021/05/26 08:27:56;;;;;;;3.37;1.10;;;;;;;15.93;51.24;100251.81;1629138;85;21213;-84
2021/05/26 08:30:22;;;;;;;3.00;1.32;;;;;;;15.78;51.56;100261.20;1651678;84;20980;-87
2021/05/26 08:32:56;;;;;;;8.53;1.40;;;;;;;15.81;51.29;100248.51;1631007;86;21134;-91
2021/05/26 08:35:26;;;;;;;2.77;1.20;;;;;;;15.62;51.69;100256.05;1629127;86;21182;-86
2021/05/26 08:37:52;;;;;;;2.95;1.40;;;;;;;15.95;51.67;100252.95;1648297;85;21105;-83
2021/05/26 08:40:18;;;;;;;8.05;1.60;;;;;;;16.11;51.48;100243.40;1648830;85;21122;-90
2021/05/26 08:42:46;;;;;;;3.97;1.23;;;;;;;15.98;51.40;100249.91;1647094;85;21480;-86
2021/05/26 08:45:16;;;;;;;3.95;1.05;;;;;;;16.11;51.31;100237.23;1658003;84;21065;-88
2021/05/26 08:47:50;;;;;;;4.65;1.35;;;;;;;16.33;51.54;100251.39;1643757;85;21271;-88
2021/05/26 08:50:16;;;;;;;5.00;1.20;;;;;;;16.47;51.13;100245.15;1663533;84;20975;-89
2021/05/26 08:52:42;;;;;;;5.08;1.65;;;;;;;16.62;50.37;100282.89;1661573;85;21005;-85
2021/05/26 08:55:14;;;;;;;3.22;1.32;;;;;;;15.96;50.37;100269.27;1666633;84;20982;-89
2021/05/26 08:57:40;;;;;;;4.87;1.10;;;;;;;16.01;51.01;100250.05;1646281;84;21101;-88
2021/05/26 09:00:10;;;;;;;6.75;1.30;;;;;;;16.06;51.02;100262.29;1669529;84;21119;-87
2021/05/26 09:02:37;;;;;;;4.22;1.25;;;;;;;15.72;51.64;100256.59;1664775;84;21018;-84
2021/05/26 09:05:07;;;;;;;4.92;1.60;;;;;;;16.03;50.94;100258.67;1642129;85;21164;-85
2021/05/26 09:07:38;;;;;;;5.12;1.25;;;;;;;16.23;51.17;100250.87;1661596;84;20998;-82
2021/05/26 09:10:06;;;;;;;2.92;1.30;;;;;;;16.31;50.96;100252.07;1665786;84;21048;-90
2021/05/26 09:12:41;;;;;;;4.60;1.10;;;;;;;16.39;50.98;100257.29;1662547;85;21212;-84
2021/05/26 09:15:16;;;;;;;5.35;1.70;;;;;;;16.60;50.64;100248.94;1666847;84;21531;-91
2021/05/26 09:17:45;;;;;;;10.90;1.37;;;;;;;16.29;49.77;100237.61;1664350;84;21100;-85
2021/05/26 09:20:14;;;;;;;4.37;1.20;;;;;;;16.53;49.84;100237.39;1664574;85;21101;-85
2021/05/26 09:23:02;;;;;;;4.30;1.45;;;;;;;16.68;48.47;100244.79;1665366;84;37502;-84
2021/05/26 09:25:29;;;;;;;3.87;1.50;;;;;;;16.76;49.09;100241.16;1664751;84;21069;-84
2021/05/26 09:28:28;;;;;;;5.08;1.47;;;;;;;16.62;48.15;100233.56;1644957;85;28105;-84
2021/05/26 09:31:04;;;;;;;3.17;1.30;;;;;;;16.70;48.12;100234.74;1665377;85;21025;-83
2021/05/26 09:33:48;;;;;;;3.20;1.50;;;;;;;16.80;48.58;100232.57;1665648;85;21029;-85
2021/05/26 09:36:21;;;;;;;4.22;1.40;;;;;;;17.00;48.38;100240.73;1645681;85;22286;-87
2021/05/26 09:38:59;;;;;;;4.28;1.32;;;;;;;17.05;47.45;100248.15;1663876;85;21164;-85
2021/05/26 09:41:32;;;;;;;4.45;1.45;;;;;;;16.83;48.08;100240.19;1665588;84;21641;-85
2021/05/26 09:44:13;;;;;;;3.58;1.57;;;;;;;16.73;47.93;100246.87;1664884;86;21568;-85
2021/05/26 09:46:43;;;;;;;5.15;1.42;;;;;;;16.90;48.64;100226.09;1658288;84;21073;-88
2021/05/26 09:49:21;;;;;;;4.00;1.50;;;;;;;17.38;47.84;100226.14;1658426;84;21634;-85
2021/05/26 09:51:51;;;;;;;5.42;1.82;;;;;;;17.57;47.37;100221.39;1634713;85;21006;-84
2021/05/26 09:54:28;;;;;;;6.67;1.75;;;;;;;17.57;46.58;100240.09;1653038;85;21081;-91
2021/05/26 09:57:07;;;;;;;6.28;1.90;;;;;;;17.78;46.34;100232.95;1654378;85;21034;-86
2021/05/26 09:59:36;;;;;;;4.80;1.30;;;;;;;17.52;45.96;100219.81;1654641;85;21121;-88
2021/05/26 10:02:06;;;;;;;4.72;1.52;;;;;;;17.07;46.37;100246.62;1654825;85;21118;-89
2021/05/26 10:04:32;;;;;;;4.72;1.77;;;;;;;17.44;45.15;100225.86;1655297;84;21118;-89
2021/05/26 10:06:59;;;;;;;4.80;1.60;;;;;;;17.49;45.12;100204.72;1655426;85;21280;-88
2021/05/26 10:09:25;;;;;;;4.30;1.47;;;;;;;17.87;44.70;100198.88;1655950;85;21630;-83
2021/05/26 10:11:56;;;;;;;4.00;1.40;;;;;;;17.87;44.70;100198.88;1654029;85;21488;-85
2021/05/26 10:14:23;;;;;;;5.12;1.80;;;;;;;17.94;45.20;100225.95;1656537;85;21141;-88
2021/05/26 10:16:55;;;;;;;4.85;1.40;;;;;;;18.08;45.35;100211.25;1657868;85;21091;-85
2021/05/26 10:19:20;;;;;;;4.20;1.30;;;;;;;18.12;44.59;100209.30;1655552;84;21631;-86
2021/05/26 10:21:49;;;;;;;4.20;1.40;;;;;;;18.07;45.19;100204.25;1653564;85;21071;-86
2021/05/26 10:24:23;;;;;;;2.83;1.10;;;;;;;18.42;45.61;100200.06;1655150;84;21629;-87
2021/05/26 10:27:03;;;;;;;4.25;1.30;;;;;;;18.51;44.19;100196.14;1658407;84;21059;-91
2021/05/26 10:29:33;;;;;;;3.72;1.40;;;;;;;18.21;44.46;100213.95;1654419;85;21111;-87
2021/05/26 10:32:05;;;;;;;3.87;1.40;;;;;;;18.00;44.79;100206.11;1655323;84;21018;-85
2021/05/26 10:34:51;;;;;;;3.72;1.37;;;;;;;17.98;44.67;100201.49;1650309;85;21115;-84
2021/05/26 10:37:30;;;;;;;4.65;1.50;;;;;;;17.71;44.04;100212.91;1650087;84;21037;-87
2021/05/26 10:39:57;;;;;;;4.67;1.22;;;;;;;17.58;45.04;100205.66;1652199;85;21133;-88
2021/05/26 10:42:34;;;;;;;4.83;1.42;;;;;;;17.68;45.20;100187.09;1654706;86;21067;-88
2021/05/26 10:45:07;;;;;;;5.30;1.20;;;;;;;18.04;45.39;100195.34;1661371;85;21015;-87
2021/05/26 10:47:43;;;;;;;5.22;1.82;;;;;;;17.99;42.51;100185.75;1673247;84;21726;-86
2021/05/26 10:50:26;;;;;;;3.70;1.20;;;;;;;17.86;42.99;100187.34;1674281;84;21085;-87
2021/05/26 10:53:03;;;;;;;3.47;1.27;;;;;;;18.15;42.89;100176.01;1673547;84;21566;-89
2021/05/26 10:55:43;;;;;;;5.83;1.30;;;;;;;18.45;42.44;100168.89;1646629;85;21090;-86
2021/05/26 10:58:30;;;;;;;3.87;1.20;;;;;;;18.52;43.23;100170.21;1673517;84;21112;-82
2021/05/26 11:01:03;;;;;;;4.55;1.30;;;;;;;18.15;41.76;100169.82;1673043;84;21064;-86
2021/05/26 11:03:46;;;;;;;3.92;1.07;;;;;;;18.05;41.33;100164.40;1678151;84;21073;-87
2021/05/26 11:06:31;;;;;;;3.12;1.30;;;;;;;18.09;41.56;100163.47;1653114;84;21046;-85
2021/05/26 11:08:57;;;;;;;7.42;1.30;;;;;;;18.26;41.52;100160.68;1673583;84;21176;-83
2021/05/26 11:11:39;;;;;;;5.33;1.30;;;;;;;18.40;41.88;100164.17;1672246;84;21553;-86
2021/05/26 11:14:19;;;;;;;8.30;1.50;;;;;;;18.36;41.37;100166.13;1666132;84;21057;-84
2021/05/26 11:16:51;;;;;;;4.17;1.47;;;;;;;18.37;41.62;100181.15;1670077;85;21674;-88
2021/05/26 11:19:24;;;;;;;5.70;1.40;;;;;;;18.23;41.76;100159.76;1671596;84;21081;-88
2021/05/26 11:22:13;;;;;;;4.75;1.30;;;;;;;18.45;41.68;100150.17;1666121;85;21084;-87
2021/05/26 11:24:41;;;;;;;2.90;1.12;;;;;;;18.76;41.34;100148.67;1667286;84;22339;-87
2021/05/26 11:27:23;;;;;;;3.90;1.40;;;;;;;18.68;41.29;100150.25;1670948;84;21325;-89
2021/05/26 11:29:57;;;;;;;5.58;1.47;;;;;;;18.62;40.52;100146.55;1672725;84;21644;-88
2021/05/26 11:32:28;;;;;;;7.70;1.50;;;;;;;19.01;40.84;100133.58;1671327;84;21133;-93
2021/05/26 11:34:57;;;;;;;4.42;1.67;;;;;;;18.97;40.94;100146.25;1670396;84;21071;-94
2021/05/26 11:37:27;;;;;;;4.10;1.40;;;;;;;19.29;40.81;100145.00;1670597;84;20990;-86